Time;durP1;ratioP1;P1;durP2;ratioP2;P2;SDS_P1;SDS_P2;PMS_P1;PMS_P2;Temp;Humidity;BMP_temperature;BMP_pressure;BME280_temperature;BME280_humidity;BME280_pressure;Samples;Min_cycle;Max_cycle;Signal;HPM_P1;HPM_P2
2022/05/12 00:02:07;;;;;;;4.47;4.17;;;22.90;46.30;;;;;;5055024;28;20537;-70
2022/05/12 00:04:37;;;;;;;4.27;3.90;;;22.90;46.70;;;;;;5055043;28;20473;-70
2022/05/12 00:07:04;;;;;;;4.10;3.80;;;22.80;47.20;;;;;;5054935;28;20440;-70
2022/05/12 00:09:31;;;;;;;4.43;4.03;;;22.80;47.80;;;;;;5054942;28;21003;-70
2022/05/12 00:11:58;;;;;;;4.30;4.00;;;22.70;47.90;;;;;;5055067;28;20517;-70
2022/05/12 00:14:26;;;;;;;5.47;4.37;;;22.70;47.90;;;;;;5054927;28;20478;-70
2022/05/12 00:16:56;;;;;;;5.00;4.60;;;22.70;48.30;;;;;;5054826;28;20446;-70
2022/05/12 00:19:24;;;;;;;4.67;4.30;;;22.70;48.40;;;;;;5054620;28;20485;-69
2022/05/12 00:21:52;;;;;;;4.53;4.13;;;22.70;48.60;;;;;;5055185;28;20545;-70
2022/05/12 00:24:19;;;;;;;4.40;4.00;;;22.70;48.80;;;;;;5054612;28;20472;-71
2022/05/12 00:26:46;;;;;;;4.80;4.40;;;22.70;49.00;;;;;;5054954;28;20449;-71
2022/05/12 00:29:14;;;;;;;6.53;4.63;;;22.60;49.30;;;;;;5054555;28;20450;-70
2022/05/12 00:31:44;;;;;;;4.43;4.07;;;22.60;49.80;;;;;;5053774;28;21019;-71
2022/05/12 00:34:12;;;;;;;4.27;3.97;;;22.60;49.90;;;;;;5037727;28;20977;-69
2022/05/12 00:36:39;;;;;;;5.23;4.73;;;22.60;50.00;;;;;;5035520;28;20529;-69
2022/05/12 00:39:08;;;;;;;4.70;4.30;;;22.50;50.00;;;;;;5035483;28;20471;-69
2022/05/12 00:41:35;;;;;;;5.27;4.77;;;22.50;50.00;;;;;;5035720;28;20451;-69
2022/05/12 00:44:06;;;;;;;5.00;4.60;;;22.50;50.10;;;;;;5035434;28;20442;-69
2022/05/12 00:46:36;;;;;;;4.80;4.40;;;22.50;50.20;;;;;;5035590;28;20439;-69
2022/05/12 00:49:06;;;;;;;5.40;4.90;;;22.50;50.30;;;;;;5035818;28;20435;-69
2022/05/12 00:51:37;;;;;;;4.80;4.40;;;22.40;50.50;;;;;;5034628;28;20446;-69
2022/05/12 00:54:10;;;;;;;4.73;4.33;;;22.40;50.70;;;;;;5035056;28;20553;-69
2022/05/12 00:56:39;;;;;;;4.97;4.57;;;22.30;51.00;;;;;;5035516;28;20842;-69
2022/05/12 00:59:09;;;;;;;5.07;4.67;;;22.20;51.40;;;;;;5035259;28;20478;-69
2022/05/12 01:01:38;;;;;;;5.07;4.67;;;22.20;51.80;;;;;;5035123;28;20439;-69
2022/05/12 01:04:05;;;;;;;4.93;4.53;;;22.20;52.10;;;;;;5035135;28;20445;-69
2022/05/12 01:06:32;;;;;;;4.67;4.27;;;22.20;51.90;;;;;;5035307;28;20521;-69
2022/05/12 01:08:59;;;;;;;4.50;4.20;;;22.10;51.80;;;;;;5035081;28;20449;-68
2022/05/12 01:11:26;;;;;;;4.67;4.37;;;22.10;52.70;;;;;;5035049;28;20450;-69
2022/05/12 01:14:00;;;;;;;5.77;4.30;;;22.10;51.80;;;;;;5034850;28;20482;-69
2022/05/12 01:16:46;;;;;;;5.07;4.67;;;22.10;52.10;;;;;;5035132;28;20446;-69
2022/05/12 01:19:16;;;;;;;6.00;5.50;;;22.10;52.30;;;;;;5034966;28;20484;-69
2022/05/12 01:21:43;;;;;;;5.17;4.70;;;22.10;53.00;;;;;;5035031;28;20447;-69
2022/05/12 01:24:11;;;;;;;4.70;4.30;;;22.00;52.80;;;;;;5034661;28;20476;-69
2022/05/12 01:26:39;;;;;;;4.73;4.43;;;22.00;52.80;;;;;;5034665;28;20949;-69
2022/05/12 01:29:06;;;;;;;4.87;4.47;;;22.00;53.00;;;;;;5035026;28;20522;-69
2022/05/12 01:31:35;;;;;;;5.37;4.93;;;22.00;53.30;;;;;;5034758;28;20452;-69
2022/05/12 01:34:02;;;;;;;4.93;4.53;;;21.90;53.60;;;;;;5034474;28;20453;-69
2022/05/12 01:36:29;;;;;;;4.90;4.50;;;21.90;54.50;;;;;;5034653;28;20456;-69
2022/05/12 01:38:56;;;;;;;4.70;4.40;;;21.80;54.70;;;;;;5034574;28;20484;-69
2022/05/12 01:41:24;;;;;;;5.33;4.50;;;21.70;55.40;;;;;;5034721;28;20446;-69
2022/05/12 01:43:51;;;;;;;4.97;4.57;;;21.60;55.40;;;;;;5034297;28;20450;-69
2022/05/12 01:46:18;;;;;;;5.10;4.70;;;21.50;55.90;;;;;;5034674;28;20804;-69
2022/05/12 01:48:45;;;;;;;5.50;5.00;;;21.50;55.50;;;;;;5034329;28;20452;-71
2022/05/12 01:51:12;;;;;;;5.77;5.10;;;21.50;55.90;;;;;;5034368;28;20541;-69
2022/05/12 01:53:40;;;;;;;4.87;4.47;;;21.50;56.00;;;;;;5034102;28;20468;-69
2022/05/12 01:56:08;;;;;;;5.13;4.70;;;21.50;56.10;;;;;;5034349;28;20568;-69
2022/05/12 01:58:36;;;;;;;5.30;4.90;;;21.40;56.00;;;;;;5034242;28;20454;-69
2022/05/12 02:01:03;;;;;;;5.10;4.70;;;21.40;56.20;;;;;;5034182;28;20824;-69
2022/05/12 02:03:31;;;;;;;5.40;4.50;;;21.40;56.90;;;;;;5033806;28;20452;-69
2022/05/12 02:05:57;;;;;;;5.00;4.50;;;21.30;57.60;;;;;;5033807;28;20477;-69
2022/05/12 02:08:25;;;;;;;4.80;4.40;;;21.20;57.70;;;;;;5034078;28;20457;-69
2022/05/12 02:10:53;;;;;;;4.87;4.47;;;21.20;58.30;;;;;;5033979;28;20454;-69
2022/05/12 02:13:25;;;;;;;5.27;4.73;;;21.20;57.70;;;;;;5033695;28;20540;-69
2022/05/12 02:15:54;;;;;;;5.47;4.97;;;21.20;58.40;;;;;;5033891;28;20477;-69
2022/05/12 02:18:22;;;;;;;4.93;4.63;;;21.20;58.60;;;;;;5033906;28;20450;-69
2022/05/12 02:20:49;;;;;;;4.90;4.27;;;21.00;58.90;;;;;;5033601;28;20482;-68
2022/05/12 02:23:17;;;;;;;5.27;4.87;;;21.00;59.70;;;;;;5033686;28;20448;-69
2022/05/12 02:25:43;;;;;;;6.67;4.50;;;21.00;60.00;;;;;;5033807;28;20473;-69
2022/05/12 02:28:11;;;;;;;4.90;4.50;;;20.90;60.80;;;;;;5033907;28;20536;-69
2022/05/12 02:30:38;;;;;;;5.03;4.60;;;20.70;60.90;;;;;;5033689;28;20448;-69
2022/05/12 02:33:06;;;;;;;5.07;4.57;;;20.60;62.70;;;;;;5033589;28;20445;-68
2022/05/12 02:35:33;;;;;;;5.27;4.77;;;20.50;63.30;;;;;;5033729;28;20823;-69
2022/05/12 02:38:00;;;;;;;5.63;5.20;;;20.50;63.50;;;;;;5033684;28;20446;-69
2022/05/12 02:40:28;;;;;;;5.23;4.73;;;20.50;64.70;;;;;;5033574;28;20507;-69
2022/05/12 02:42:56;;;;;;;5.70;4.60;;;20.30;65.40;;;;;;5033341;28;20453;-70
2022/05/12 02:45:24;;;;;;;5.37;4.87;;;20.20;66.20;;;;;;5033518;28;20881;-69
2022/05/12 02:47:50;;;;;;;5.40;5.00;;;20.20;66.60;;;;;;5033823;28;20439;-69
2022/05/12 02:50:20;;;;;;;5.63;5.00;;;20.30;66.70;;;;;;5033544;28;20529;-69
2022/05/12 02:52:47;;;;;;;5.07;4.67;;;20.40;67.30;;;;;;5033226;28;20548;-69
2022/05/12 02:55:14;;;;;;;5.53;4.97;;;20.40;68.00;;;;;;5033211;28;20486;-68
2022/05/12 02:57:42;;;;;;;5.53;5.13;;;20.30;67.80;;;;;;5033169;28;20452;-69
2022/05/12 03:00:12;;;;;;;5.20;4.70;;;20.30;68.70;;;;;;5033088;28;20993;-69
2022/05/12 03:02:39;;;;;;;5.10;4.70;;;20.30;68.00;;;;;;5033212;28;20894;-69
2022/05/12 03:05:07;;;;;;;5.53;4.80;;;20.40;68.00;;;;;;5033271;28;20488;-69
2022/05/12 03:07:35;;;;;;;5.83;4.67;;;20.40;69.00;;;;;;5033469;28;20529;-69
2022/05/12 03:10:03;;;;;;;4.70;4.30;;;20.40;69.50;;;;;;5033291;28;20454;-69
2022/05/12 03:12:32;;;;;;;5.10;4.60;;;20.50;70.00;;;;;;5033142;28;20528;-68
2022/05/12 03:14:59;;;;;;;5.60;4.70;;;20.40;69.40;;;;;;5035874;28;20475;-69
2022/05/12 03:17:26;;;;;;;4.70;4.20;;;20.50;70.20;;;;;;5037255;28;20448;-69
2022/05/12 03:19:52;;;;;;;6.30;4.50;;;20.40;71.10;;;;;;5037159;28;20484;-69
2022/05/12 03:22:19;;;;;;;5.43;4.93;;;20.30;71.60;;;;;;5036899;28;20531;-69
2022/05/12 03:24:47;;;;;;;5.30;4.90;;;20.20;73.20;;;;;;5037009;28;20463;-69
2022/05/12 03:27:14;;;;;;;7.73;4.77;;;20.10;73.10;;;;;;5037157;28;20532;-69
2022/05/12 03:29:41;;;;;;;5.10;4.70;;;20.10;74.00;;;;;;5036887;28;20478;-68
2022/05/12 03:32:10;;;;;;;4.70;4.03;;;20.00;75.20;;;;;;5036847;28;20439;-69
2022/05/12 03:34:38;;;;;;;5.30;4.80;;;20.00;76.00;;;;;;5036663;28;20479;-68
2022/05/12 03:37:06;;;;;;;4.80;4.38;;;20.00;76.90;;;;;;5036801;28;20541;-68
2022/05/12 03:39:33;;;;;;;4.87;4.47;;;20.00;77.30;;;;;;5036506;28;20221;-68
2022/05/12 03:42:01;;;;;;;5.40;4.90;;;20.00;78.40;;;;;;5036870;28;20455;-68
2022/05/12 03:47:14;;;;;;;5.40;5.00;;;20.00;79.00;;;;;;5036971;28;20408;-69
2022/05/12 03:49:41;;;;;;;6.07;4.87;;;19.80;79.60;;;;;;5036615;28;20913;-68
2022/05/12 03:52:08;;;;;;;4.83;4.43;;;19.80;80.80;;;;;;5036585;28;20447;-69
2022/05/12 03:54:35;;;;;;;4.77;4.37;;;19.70;81.70;;;;;;5036439;28;20479;-69
2022/05/12 03:57:04;;;;;;;4.70;4.30;;;19.70;82.40;;;;;;5036398;28;20916;-68
2022/05/12 03:59:31;;;;;;;5.30;4.75;;;19.70;83.00;;;;;;5036425;28;20444;-68
2022/05/12 04:01:58;;;;;;;5.17;4.67;;;19.70;83.80;;;;;;5036468;28;20297;-68
2022/05/12 04:04:25;;;;;;;4.85;4.45;;;19.70;84.60;;;;;;5036172;28;20830;-69
2022/05/12 04:06:52;;;;;;;4.07;3.67;;;19.60;84.70;;;;;;5036392;28;20212;-69
2022/05/12 04:09:19;;;;;;;5.53;4.70;;;19.60;84.90;;;;;;5036341;28;20451;-69
2022/05/12 04:11:46;;;;;;;4.30;3.90;;;19.70;85.80;;;;;;5036103;28;20536;-68
2022/05/12 04:14:14;;;;;;;5.35;3.60;;;19.60;86.30;;;;;;5035993;28;20469;-68
2022/05/12 04:16:41;;;;;;;4.07;3.77;;;19.70;87.10;;;;;;5035875;28;20666;-68
2022/05/12 04:19:08;;;;;;;4.22;3.90;;;19.60;88.00;;;;;;5036119;28;20443;-68
2022/05/12 04:21:36;;;;;;;4.70;4.00;;;19.60;88.60;;;;;;5036064;28;20228;-68
2022/05/12 04:24:05;;;;;;;6.53;4.25;;;19.70;88.60;;;;;;5035919;28;20448;-68
2022/05/12 04:26:32;;;;;;;3.93;3.63;;;19.70;88.80;;;;;;5034901;28;20214;-68
2022/05/12 04:28:59;;;;;;;3.90;3.57;;;19.70;89.80;;;;;;5035888;28;20444;-68
2022/05/12 04:31:28;;;;;;;3.30;3.10;;;19.70;89.30;;;;;;5035857;28;20809;-68
2022/05/12 04:36:39;;;;;;;3.50;3.20;;;19.70;90.60;;;;;;5035850;28;20451;-68
2022/05/12 04:39:06;;;;;;;3.40;3.10;;;19.70;91.00;;;;;;5035772;28;20296;-69
2022/05/12 04:41:33;;;;;;;3.23;3.03;;;19.60;90.90;;;;;;5035858;28;20598;-69
2022/05/12 04:44:00;;;;;;;3.85;3.55;;;19.60;91.10;;;;;;5035129;28;20534;-69
2022/05/12 04:46:29;;;;;;;3.10;2.90;;;19.70;91.20;;;;;;5035385;28;20203;-69
2022/05/12 04:48:56;;;;;;;3.60;3.30;;;19.70;91.10;;;;;;5035646;28;20307;-69
2022/05/12 04:51:23;;;;;;;3.45;3.15;;;19.70;91.50;;;;;;5035544;28;20197;-69
2022/05/12 04:53:50;;;;;;;3.60;3.30;;;19.80;91.60;;;;;;5035136;28;20690;-69
2022/05/12 04:56:17;;;;;;;4.70;3.57;;;19.70;91.60;;;;;;5035481;28;20542;-69
2022/05/12 04:58:43;;;;;;;3.63;3.33;;;19.80;92.00;;;;;;5035418;28;20560;-69
2022/05/12 05:01:10;;;;;;;3.93;3.40;;;19.80;92.00;;;;;;5035068;28;20993;-69
2022/05/12 05:03:38;;;;;;;3.60;3.30;;;19.80;92.80;;;;;;5035197;28;20451;-69
2022/05/12 05:06:05;;;;;;;4.40;2.77;;;19.80;93.00;;;;;;5034972;28;20549;-69
2022/05/12 05:08:32;;;;;;;3.20;2.90;;;19.70;92.60;;;;;;5035388;28;20937;-69
2022/05/12 05:10:59;;;;;;;2.90;2.70;;;19.70;93.10;;;;;;5035378;28;20435;-70
2022/05/12 05:13:26;;;;;;;3.13;2.92;;;19.70;92.40;;;;;;5034966;28;20455;-70
2022/05/12 05:15:54;;;;;;;4.03;3.00;;;19.60;92.10;;;;;;5035054;28;20587;-69
2022/05/12 05:18:22;;;;;;;3.20;3.00;;;19.80;92.30;;;;;;5035256;28;20209;-69
2022/05/12 05:20:51;;;;;;;3.50;3.20;;;19.70;92.20;;;;;;5034763;28;20479;-69
2022/05/12 05:23:21;;;;;;;3.10;2.80;;;19.80;92.00;;;;;;5034586;28;20488;-69
2022/05/12 05:25:48;;;;;;;3.37;3.07;;;19.90;92.30;;;;;;5034557;28;20487;-69
2022/05/12 05:28:16;;;;;;;2.70;2.50;;;19.90;91.80;;;;;;5034967;28;20444;-69
2022/05/12 05:30:42;;;;;;;4.33;3.93;;;19.90;92.20;;;;;;5034829;28;20944;-69
2022/05/12 05:33:10;;;;;;;3.50;3.10;;;20.00;92.60;;;;;;5034436;28;20469;-69
2022/05/12 05:35:37;;;;;;;3.60;3.30;;;20.10;92.00;;;;;;5034520;28;20472;-70
2022/05/12 05:38:05;;;;;;;3.07;2.83;;;20.10;92.50;;;;;;5034049;28;20447;-69
2022/05/12 05:40:32;;;;;;;3.97;3.03;;;20.10;92.20;;;;;;5034511;28;20484;-69
2022/05/12 05:43:00;;;;;;;2.90;2.70;;;20.00;92.10;;;;;;5034390;28;20450;-69
2022/05/12 05:45:27;;;;;;;3.10;2.70;;;19.90;91.90;;;;;;5034459;28;20476;-69
2022/05/12 05:47:58;;;;;;;3.90;3.00;;;20.00;92.50;;;;;;5034430;28;20815;-69
2022/05/12 05:50:28;;;;;;;3.20;3.00;;;20.10;92.40;;;;;;5034431;28;20445;-70
2022/05/12 05:55:42;;;;;;;3.33;3.03;;;20.10;92.70;;;;;;5034023;28;20439;-69
2022/05/12 05:58:10;;;;;;;3.20;2.90;;;20.20;92.80;;;;;;5034255;28;20442;-69
2022/05/12 06:00:37;;;;;;;4.30;3.90;;;20.30;93.10;;;;;;5034100;28;20486;-69
2022/05/12 06:03:05;;;;;;;4.20;3.80;;;20.40;92.70;;;;;;5034173;28;20456;-69
2022/05/12 06:05:33;;;;;;;3.40;3.10;;;20.30;92.30;;;;;;5034108;28;20473;-69
2022/05/12 06:08:00;;;;;;;3.33;3.13;;;20.20;92.50;;;;;;5034058;28;20452;-69
2022/05/12 06:10:27;;;;;;;3.30;3.00;;;20.10;93.00;;;;;;5034063;28;20449;-69
2022/05/12 06:12:55;;;;;;;6.50;3.10;;;20.10;93.10;;;;;;5033745;28;20467;-69
2022/05/12 06:15:23;;;;;;;5.53;3.17;;;20.10;93.90;;;;;;5033648;28;20484;-69
2022/05/12 06:17:50;;;;;;;2.90;2.70;;;20.00;93.30;;;;;;5033911;28;20457;-69
2022/05/12 06:20:17;;;;;;;3.50;3.20;;;20.00;94.20;;;;;;5033823;28;20498;-69
2022/05/12 06:22:44;;;;;;;3.33;3.10;;;20.10;93.30;;;;;;5033639;28;20453;-69
2022/05/12 06:25:16;;;;;;;3.17;2.87;;;20.10;93.40;;;;;;5033721;28;20979;-70
2022/05/12 06:27:42;;;;;;;5.43;3.50;;;20.20;93.70;;;;;;5033994;28;20436;-69
2022/05/12 06:30:12;;;;;;;4.97;2.87;;;20.20;93.80;;;;;;5033810;28;20440;-70
2022/05/12 06:32:39;;;;;;;4.77;2.57;;;20.20;93.90;;;;;;5033583;28;20856;-69
2022/05/12 06:35:08;;;;;;;2.90;2.70;;;20.20;93.80;;;;;;5033699;28;20560;-69
2022/05/12 06:37:36;;;;;;;3.30;3.00;;;20.30;94.10;;;;;;5033525;28;20438;-69
2022/05/12 06:40:03;;;;;;;3.40;3.20;;;20.30;93.90;;;;;;5033955;28;20451;-69
2022/05/12 06:42:30;;;;;;;2.83;2.60;;;20.40;93.80;;;;;;5034156;28;20850;-70
2022/05/12 06:44:57;;;;;;;3.20;2.90;;;20.50;94.30;;;;;;5033497;28;20564;-69
2022/05/12 06:47:25;;;;;;;4.17;3.00;;;20.60;94.30;;;;;;5033537;28;20446;-69
2022/05/12 06:49:53;;;;;;;3.10;2.90;;;20.60;94.10;;;;;;5032759;28;20541;-69
2022/05/12 06:52:20;;;;;;;3.40;2.90;;;20.50;93.30;;;;;;5033330;28;20801;-69
2022/05/12 06:54:47;;;;;;;4.37;2.63;;;20.60;93.40;;;;;;5033059;28;20567;-69
2022/05/12 06:57:21;;;;;;;3.23;3.03;;;20.60;93.20;;;;;;5033469;28;20544;-69
2022/05/12 06:59:48;;;;;;;3.23;2.93;;;20.60;93.40;;;;;;5033508;28;20445;-69
2022/05/12 07:02:15;;;;;;;3.00;2.70;;;20.70;93.80;;;;;;5033077;28;20569;-70
2022/05/12 07:04:45;;;;;;;3.33;3.03;;;20.70;93.60;;;;;;5033251;28;20831;-69
2022/05/12 07:07:12;;;;;;;3.17;2.87;;;20.70;93.60;;;;;;5033466;28;20792;-69
2022/05/12 07:09:39;;;;;;;2.73;2.53;;;20.70;94.30;;;;;;5033336;28;20449;-70
2022/05/12 07:12:07;;;;;;;2.93;2.67;;;20.80;93.40;;;;;;5033691;28;20803;-70
2022/05/12 07:14:33;;;;;;;3.27;2.90;;;20.80;93.20;;;;;;5033023;28;20466;-70
2022/05/12 07:17:03;;;;;;;2.90;2.70;;;20.90;93.30;;;;;;5033154;28;20450;-69
2022/05/12 07:19:31;;;;;;;2.70;2.33;;;20.90;93.50;;;;;;5033370;28;20446;-69
2022/05/12 07:27:28;;;;;;;2.60;2.40;;;21.10;93.80;;;;;;5051944;28;20448;-70
2022/05/12 07:29:54;;;;;;;2.57;2.37;;;21.20;94.20;;;;;;5051796;28;20456;-70
2022/05/12 07:32:21;;;;;;;4.13;2.60;;;21.30;93.60;;;;;;5051900;28;20445;-70
2022/05/12 07:34:48;;;;;;;2.67;2.43;;;21.20;93.60;;;;;;5051333;28;20523;-71
2022/05/12 07:37:17;;;;;;;2.60;2.40;;;21.30;93.70;;;;;;5051496;28;20540;-70
2022/05/12 07:39:44;;;;;;;2.90;2.70;;;21.20;93.30;;;;;;5051521;28;20451;-70
2022/05/12 07:42:11;;;;;;;3.90;2.57;;;21.30;93.70;;;;;;5051697;28;20860;-70
2022/05/12 07:44:38;;;;;;;3.03;2.70;;;21.40;93.50;;;;;;5051264;28;20851;-70
2022/05/12 07:47:09;;;;;;;2.70;2.50;;;21.30;92.70;;;;;;5051439;28;20757;-71
2022/05/12 07:49:36;;;;;;;3.27;2.83;;;21.40;92.90;;;;;;5051525;28;20539;-71
2022/05/12 07:52:04;;;;;;;3.60;2.80;;;21.30;92.80;;;;;;5051778;28;20511;-71
2022/05/12 07:54:32;;;;;;;2.63;2.43;;;21.40;93.40;;;;;;5051279;28;20579;-72
2022/05/12 07:57:00;;;;;;;3.07;2.87;;;21.70;93.30;;;;;;5051373;28;20449;-70
2022/05/12 07:59:29;;;;;;;2.60;2.40;;;21.90;92.40;;;;;;5051943;28;20816;-71
2022/05/12 08:01:58;;;;;;;4.23;2.93;;;22.00;91.90;;;;;;5055019;28;20484;-71
2022/05/12 08:04:25;;;;;;;3.10;2.80;;;22.40;91.40;;;;;;5054856;28;20492;-71
2022/05/12 08:06:52;;;;;;;2.90;2.70;;;22.40;90.60;;;;;;5054962;28;20522;-71
2022/05/12 08:09:20;;;;;;;3.00;2.80;;;22.60;90.80;;;;;;5055145;28;20454;-71
2022/05/12 08:11:48;;;;;;;2.87;2.50;;;22.80;89.80;;;;;;5055218;28;20446;-71
2022/05/12 08:14:15;;;;;;;2.70;2.50;;;23.20;90.60;;;;;;5056096;28;20570;-70
2022/05/12 08:16:41;;;;;;;2.60;2.40;;;23.80;88.10;;;;;;5056384;28;20488;-70
2022/05/12 08:19:08;;;;;;;3.33;3.07;;;25.10;83.60;;;;;;5056374;28;20517;-70
2022/05/12 08:21:35;;;;;;;3.13;2.83;;;26.30;81.10;;;;;;5056396;28;20481;-70
2022/05/12 08:24:02;;;;;;;2.90;2.70;;;27.00;73.30;;;;;;5055884;28;20545;-70
2022/05/12 08:26:29;;;;;;;3.23;2.93;;;27.80;70.00;;;;;;5056455;28;20841;-70
2022/05/12 08:28:57;;;;;;;3.20;3.00;;;29.00;66.80;;;;;;5055782;28;20441;-70
2022/05/12 08:31:29;;;;;;;5.23;4.83;;;30.30;59.50;;;;;;5056043;28;20833;-70
2022/05/12 08:33:57;;;;;;;3.13;2.83;;;30.50;58.50;;;;;;5055841;28;20512;-69
2022/05/12 08:36:24;;;;;;;3.27;2.90;;;30.00;58.30;;;;;;5055779;28;20450;-69
2022/05/12 08:38:51;;;;;;;2.90;2.70;;;30.00;58.50;;;;;;5055703;28;20524;-69
2022/05/12 08:41:27;;;;;;;2.90;2.70;;;30.00;58.90;;;;;;5055526;28;20477;-70
2022/05/12 08:44:00;;;;;;;3.10;2.90;;;29.60;57.60;;;;;;5055626;28;20465;-69
2022/05/12 08:46:36;;;;;;;3.67;3.33;;;28.80;59.30;;;;;;5055292;28;20436;-69
2022/05/12 08:49:16;;;;;;;3.20;3.00;;;27.40;60.70;;;;;;5055726;28;20445;-69
2022/05/12 08:51:47;;;;;;;3.50;3.20;;;26.70;64.20;;;;;;5055427;28;20528;-69
2022/05/12 08:54:18;;;;;;;3.30;3.00;;;25.80;67.80;;;;;;5054853;28;20489;-69
2022/05/12 08:56:52;;;;;;;3.70;3.40;;;25.50;70.30;;;;;;5055644;28;20480;-69
2022/05/12 08:59:20;;;;;;;4.20;3.90;;;25.60;69.50;;;;;;5055805;28;20456;-70
2022/05/12 09:01:58;;;;;;;6.23;5.40;;;26.90;69.60;;;;;;5055284;28;20480;-69
2022/05/12 09:04:38;;;;;;;4.40;4.00;;;28.50;63.10;;;;;;5055048;28;20541;-70
2022/05/12 09:07:13;;;;;;;3.80;3.40;;;29.80;59.40;;;;;;5055062;28;20444;-70
2022/05/12 09:09:51;;;;;;;3.87;3.57;;;30.50;55.40;;;;;;5055169;28;20453;-70
2022/05/12 09:12:31;;;;;;;3.63;3.33;;;30.00;54.90;;;;;;5054265;28;20434;-70
2022/05/12 09:15:06;;;;;;;3.70;3.40;;;30.00;56.90;;;;;;5054990;28;20465;-70
2022/05/12 09:17:39;;;;;;;7.90;4.27;;;30.20;55.10;;;;;;5054833;28;20444;-70
2022/05/12 09:20:09;;;;;;;6.97;6.37;;;30.80;55.00;;;;;;5054920;28;20504;-70
2022/05/12 09:22:37;;;;;;;4.23;3.90;;;31.40;53.40;;;;;;5054608;28;20483;-70
2022/05/12 09:25:06;;;;;;;4.60;4.20;;;32.40;51.50;;;;;;5054619;28;20466;-71
2022/05/12 09:27:36;;;;;;;4.00;3.70;;;32.90;50.10;;;;;;5054542;28;20998;-70
2022/05/12 09:30:06;;;;;;;3.90;3.60;;;32.90;49.40;;;;;;5054520;28;20459;-70
2022/05/12 09:32:37;;;;;;;4.00;3.60;;;31.60;50.90;;;;;;5054474;28;20438;-70
2022/05/12 09:35:12;;;;;;;4.00;3.70;;;31.70;51.60;;;;;;5054322;28;20477;-70
2022/05/12 09:37:41;;;;;;;4.53;4.23;;;30.80;52.30;;;;;;5054243;28;20444;-70
2022/05/12 09:40:19;;;;;;;4.57;4.17;;;29.30;53.70;;;;;;5054536;28;20781;-70
2022/05/12 09:42:48;;;;;;;5.57;5.13;;;28.30;57.40;;;;;;5054008;28;20481;-70
2022/05/12 09:45:27;;;;;;;5.57;5.07;;;27.50;59.40;;;;;;5054148;28;20565;-69
2022/05/12 09:48:17;;;;;;;7.47;5.27;;;27.10;60.90;;;;;;5054457;28;20434;-69
2022/05/12 09:50:44;;;;;;;5.50;5.00;;;26.80;60.70;;;;;;5054655;28;20442;-70
2022/05/12 09:53:13;;;;;;;4.97;4.57;;;26.90;62.00;;;;;;5053797;28;20443;-71
2022/05/12 09:55:42;;;;;;;8.70;6.87;;;28.00;60.00;;;;;;5053873;28;20474;-70
2022/05/12 09:58:30;;;;;;;5.97;5.57;;;28.90;57.30;;;;;;5054221;28;20533;-70
2022/05/12 10:01:16;;;;;;;6.60;6.10;;;29.70;57.00;;;;;;5054180;28;20816;-70
2022/05/12 10:09:51;;;;;;;4.73;4.33;;;29.40;55.90;;;;;;5012152;28;20424;-69
2022/05/12 10:12:23;;;;;;;3.87;3.57;;;27.90;57.70;;;;;;5047304;28;20433;-70
2022/05/12 10:14:54;;;;;;;4.27;3.93;;;26.50;60.80;;;;;;5053750;28;20492;-70
2022/05/12 10:17:30;;;;;;;6.30;4.30;;;26.00;64.20;;;;;;5053885;28;20790;-69
2022/05/12 10:20:01;;;;;;;4.30;4.00;;;26.40;62.40;;;;;;5053879;28;20492;-70
2022/05/12 10:22:34;;;;;;;4.53;4.23;;;26.10;64.00;;;;;;5053758;28;20485;-69
2022/05/12 10:25:08;;;;;;;4.57;4.27;;;25.50;66.80;;;;;;5052947;28;20474;-69
2022/05/12 10:27:46;;;;;;;4.60;4.30;;;25.90;65.50;;;;;;5053470;28;20480;-70
2022/05/12 10:30:27;;;;;;;4.40;4.10;;;26.10;65.10;;;;;;5053783;28;20475;-70
2022/05/12 10:33:08;;;;;;;5.03;4.63;;;25.60;66.10;;;;;;5053544;28;20449;-69
2022/05/12 10:35:40;;;;;;;4.50;4.10;;;25.30;68.20;;;;;;5053446;28;20457;-69
2022/05/12 10:38:09;;;;;;;5.63;4.83;;;26.70;66.50;;;;;;5053601;28;20434;-70
2022/05/12 10:40:43;;;;;;;4.60;4.20;;;27.60;63.00;;;;;;5053577;28;20799;-70
2022/05/12 10:43:42;;;;;;;4.67;4.27;;;29.00;59.20;;;;;;5053340;28;20492;-70
2022/05/12 10:46:14;;;;;;;4.23;4.03;;;29.50;57.80;;;;;;5053241;28;20508;-70
2022/05/12 10:48:56;;;;;;;5.40;4.90;;;29.30;56.80;;;;;;5053426;28;20541;-69
2022/05/12 10:51:38;;;;;;;5.20;4.80;;;27.60;58.90;;;;;;5053403;28;20473;-69
2022/05/12 10:54:15;;;;;;;4.93;4.53;;;26.90;61.70;;;;;;5053019;28;20461;-70
2022/05/12 10:56:51;;;;;;;4.60;4.20;;;26.80;64.60;;;;;;5053160;28;20525;-70
2022/05/12 10:59:37;;;;;;;5.10;4.80;;;27.10;63.10;;;;;;5053383;28;20447;-70
2022/05/12 11:02:12;;;;;;;5.20;4.70;;;27.20;62.70;;;;;;5053289;28;20484;-69
2022/05/12 11:04:45;;;;;;;5.67;5.00;;;26.90;63.10;;;;;;5053139;28;20556;-69
2022/05/12 11:07:26;;;;;;;4.90;4.50;;;26.40;66.30;;;;;;5053325;28;20532;-70
2022/05/12 11:10:05;;;;;;;5.30;4.90;;;26.30;68.70;;;;;;5053415;28;20434;-70
2022/05/12 11:12:39;;;;;;;5.27;4.87;;;26.40;65.40;;;;;;5052892;28;20483;-69
2022/05/12 11:15:11;;;;;;;5.20;4.80;;;26.50;64.40;;;;;;5053500;28;20987;-70
2022/05/12 11:17:49;;;;;;;5.50;4.57;;;26.50;64.80;;;;;;5053212;28;20532;-70
2022/05/12 11:20:25;;;;;;;5.10;4.70;;;26.20;65.30;;;;;;5053953;28;20445;-70
2022/05/12 11:23:07;;;;;;;5.60;5.20;;;26.00;66.70;;;;;;5052839;28;20488;-69
2022/05/12 11:25:41;;;;;;;5.77;5.27;;;25.70;67.50;;;;;;5052973;28;20502;-69
2022/05/12 11:31:09;;;;;;;5.80;5.20;;;25.50;66.90;;;;;;5053179;28;20499;-69
2022/05/12 11:33:39;;;;;;;5.00;4.57;;;25.20;68.30;;;;;;5052954;28;20445;-69
2022/05/12 11:36:10;;;;;;;6.13;5.60;;;25.40;69.30;;;;;;5056376;28;20473;-69
2022/05/12 11:38:53;;;;;;;5.90;5.40;;;25.20;69.90;;;;;;5056768;28;20448;-70
2022/05/12 11:41:39;;;;;;;6.40;5.87;;;24.80;68.90;;;;;;5057000;28;20440;-69
2022/05/12 11:44:24;;;;;;;6.80;5.03;;;24.60;71.30;;;;;;5056866;28;20498;-70
2022/05/12 11:47:40;;;;;;;5.63;5.23;;;24.70;71.10;;;;;;5056951;28;20428;-70
2022/05/12 11:50:34;;;;;;;5.70;5.20;;;24.90;71.50;;;;;;5056974;28;20493;-70
2022/05/12 11:53:12;;;;;;;8.47;5.27;;;25.10;69.50;;;;;;5055103;28;20540;-70
2022/05/12 11:55:57;;;;;;;5.53;5.00;;;25.30;70.20;;;;;;5056593;28;20968;-70
2022/05/12 11:58:32;;;;;;;6.10;5.50;;;25.50;69.00;;;;;;5056536;28;20441;-70
2022/05/12 12:01:03;;;;;;;5.67;5.20;;;25.70;69.00;;;;;;5056703;28;20449;-70
2022/05/12 12:03:55;;;;;;;5.97;5.50;;;26.00;68.00;;;;;;5055983;28;20486;-69
2022/05/12 12:06:47;;;;;;;6.10;5.60;;;26.10;65.90;;;;;;5056398;28;20436;-69
2022/05/12 12:09:52;;;;;;;7.23;5.77;;;26.30;66.40;;;;;;5056209;28;20532;-69
2022/05/12 12:12:56;;;;;;;6.20;5.70;;;26.40;68.20;;;;;;5055967;28;20476;-70
2022/05/12 12:16:01;;;;;;;5.73;5.33;;;26.40;65.20;;;;;;5056102;28;20499;-70
2022/05/12 12:19:07;;;;;;;7.33;4.87;;;26.50;66.40;;;;;;5056123;28;20442;-69
2022/05/12 12:22:22;;;;;;;5.03;4.63;;;26.80;66.50;;;;;;5055856;28;20858;-70
2022/05/12 12:25:20;;;;;;;5.53;5.03;;;26.90;64.30;;;;;;5055654;28;20545;-70
2022/05/12 12:28:32;;;;;;;7.80;7.10;;;26.60;64.10;;;;;;5055782;28;20473;-70
2022/05/12 12:31:09;;;;;;;5.10;4.70;;;26.50;67.00;;;;;;5049407;28;20448;-69
2022/05/12 12:33:41;;;;;;;4.30;4.00;;;26.10;67.30;;;;;;5055817;28;20445;-69
2022/05/12 12:36:29;;;;;;;4.57;4.17;;;26.10;67.20;;;;;;5055498;28;20465;-69
2022/05/12 12:39:09;;;;;;;4.43;4.13;;;26.20;67.70;;;;;;5055497;28;20944;-69
2022/05/12 12:41:42;;;;;;;5.80;4.30;;;26.00;68.40;;;;;;5055944;28;20449;-69
2022/05/12 12:44:14;;;;;;;4.87;4.47;;;25.90;68.60;;;;;;5055287;28;20474;-69
2022/05/12 12:46:53;;;;;;;4.77;4.37;;;25.90;69.70;;;;;;5054653;28;20808;-69
2022/05/12 12:49:24;;;;;;;27.27;13.10;;;25.50;70.30;;;;;;5055486;28;20444;-69
2022/05/12 12:51:57;;;;;;;26.43;13.97;;;25.30;72.50;;;;;;5055614;28;20806;-69
2022/05/12 12:57:15;;;;;;;5.83;5.33;;;25.40;70.90;;;;;;5055396;28;20421;-69
2022/05/12 12:59:47;;;;;;;9.27;7.10;;;25.20;71.30;;;;;;5055324;28;20500;-69
2022/05/12 13:02:35;;;;;;;5.63;4.97;;;25.20;71.50;;;;;;5055069;28;20510;-69
2022/05/12 13:05:05;;;;;;;26.40;14.70;;;25.10;70.60;;;;;;5055437;28;20552;-69
2022/05/12 13:07:35;;;;;;;4.90;4.50;;;25.00;76.10;;;;;;5055589;28;20430;-69
2022/05/12 13:10:07;;;;;;;4.70;4.40;;;24.90;71.90;;;;;;5055026;28;20492;-69
2022/05/12 13:12:36;;;;;;;5.37;4.90;;;25.00;72.70;;;;;;5055163;28;20870;-69
2022/05/12 13:15:13;;;;;;;5.80;5.30;;;24.90;72.90;;;;;;5054661;28;20469;-69
2022/05/12 13:17:49;;;;;;;7.77;6.80;;;25.00;75.50;;;;;;5054870;28;20559;-69
2022/05/12 13:20:20;;;;;;;4.63;4.30;;;25.20;75.30;;;;;;5054978;28;20452;-69
2022/05/12 13:22:49;;;;;;;5.00;4.57;;;25.10;73.20;;;;;;5054470;28;20579;-69
2022/05/12 13:25:22;;;;;;;13.20;8.40;;;24.90;72.60;;;;;;5054779;28;20469;-69
2022/05/12 13:27:50;;;;;;;5.03;4.63;;;24.90;76.00;;;;;;5054789;28;20886;-69
2022/05/12 13:30:20;;;;;;;6.37;5.70;;;24.90;76.00;;;;;;5054639;28;20453;-69
2022/05/12 13:32:49;;;;;;;4.77;4.37;;;24.80;75.90;;;;;;5054588;28;20449;-69